createdAt,value
2023-03-27T00:01:34.399Z,2.70
2023-03-27T00:04:02.433Z,2.60
2023-03-27T00:06:34.531Z,2.50
2023-03-27T00:09:03.758Z,2.50
2023-03-27T00:11:31.959Z,2.50
2023-03-27T00:14:00.057Z,2.50
2023-03-27T00:16:29.536Z,2.40
2023-03-27T00:18:57.768Z,2.40
2023-03-27T00:21:26.014Z,2.30
2023-03-27T00:23:54.589Z,2.40
2023-03-27T00:26:22.637Z,2.40
2023-03-27T00:28:50.676Z,2.40
2023-03-27T00:31:18.786Z,2.30
2023-03-27T00:33:48.202Z,2.40
2023-03-27T00:36:16.277Z,2.40
2023-03-27T00:38:45.908Z,2.40
2023-03-27T00:41:14.077Z,2.40
2023-03-27T00:43:43.952Z,2.40
2023-03-27T00:46:28.277Z,2.40
2023-03-27T00:48:58.247Z,2.30
2023-03-27T00:51:26.632Z,2.20
2023-03-27T00:53:55.080Z,2.10
2023-03-27T00:56:23.176Z,2.10
2023-03-27T00:58:52.066Z,2.00
2023-03-27T01:01:20.737Z,2.00
2023-03-27T01:03:49.338Z,1.90
2023-03-27T01:06:19.325Z,1.90
2023-03-27T01:08:48.279Z,1.90
2023-03-27T01:11:22.665Z,1.80
2023-03-27T01:13:58.123Z,1.80
2023-03-27T01:16:29.532Z,1.70
2023-03-27T01:19:01.897Z,1.70
2023-03-27T01:21:54.867Z,1.70
2023-03-27T01:24:55.368Z,1.70
2023-03-27T01:27:25.872Z,1.70
2023-03-27T01:30:07.904Z,1.60
2023-03-27T01:33:18.231Z,1.50
2023-03-27T01:36:36.065Z,1.40
2023-03-27T01:39:37.230Z,1.40
2023-03-27T01:42:07.437Z,1.40
2023-03-27T01:44:45.289Z,1.30
2023-03-27T01:47:18.619Z,1.30
2023-03-27T01:49:49.249Z,1.30
2023-03-27T01:52:19.522Z,1.30
2023-03-27T01:54:55.769Z,1.30
2023-03-27T01:57:25.424Z,1.30
2023-03-27T01:59:57.145Z,1.30
2023-03-27T02:02:51.060Z,1.30
2023-03-27T02:05:22.256Z,1.30
2023-03-27T02:07:53.049Z,1.30
2023-03-27T02:10:23.899Z,1.30
2023-03-27T02:12:54.087Z,1.30
2023-03-27T02:15:25.179Z,1.30
2023-03-27T02:18:04.780Z,1.20
2023-03-27T02:20:33.424Z,1.20
2023-03-27T02:23:01.895Z,1.20
2023-03-27T02:25:32.697Z,1.20
2023-03-27T02:28:15.497Z,1.30
2023-03-27T02:30:46.366Z,1.20
2023-03-27T02:33:38.826Z,1.20
2023-03-27T02:36:12.827Z,1.20
2023-03-27T02:38:44.017Z,1.10
2023-03-27T02:41:17.818Z,1.00
2023-03-27T02:43:53.777Z,1.00
2023-03-27T02:46:33.516Z,1.00
2023-03-27T02:49:04.567Z,0.90
2023-03-27T02:51:33.689Z,0.90
2023-03-27T02:54:03.937Z,0.80
2023-03-27T02:56:38.608Z,0.80
2023-03-27T02:59:08.769Z,0.80
2023-03-27T03:01:40.253Z,0.80
2023-03-27T03:04:16.734Z,0.80
2023-03-27T03:07:07.095Z,0.70
2023-03-27T03:09:40.603Z,0.80
2023-03-27T03:12:11.512Z,0.70
2023-03-27T03:14:44.094Z,0.80
2023-03-27T03:17:12.441Z,0.80
2023-03-27T03:19:40.890Z,0.70
2023-03-27T03:22:09.127Z,0.70
2023-03-27T03:24:42.199Z,0.70
2023-03-27T03:27:14.371Z,0.60
2023-03-27T03:29:58.117Z,0.60
2023-03-27T03:32:30.454Z,0.60
2023-03-27T03:35:01.781Z,0.60
2023-03-27T03:37:39.111Z,0.60
2023-03-27T03:40:12.030Z,0.60
2023-03-27T03:42:48.520Z,0.50
2023-03-27T03:45:18.122Z,0.50
2023-03-27T03:47:46.420Z,0.50
2023-03-27T03:50:14.770Z,0.50
2023-03-27T03:52:43.361Z,0.50
2023-03-27T03:55:11.994Z,0.50
2023-03-27T03:57:40.861Z,0.50
2023-03-27T04:00:17.013Z,0.40
2023-03-27T04:02:45.467Z,0.40
2023-03-27T04:05:16.475Z,0.50
2023-03-27T04:07:45.705Z,0.40
2023-03-27T04:10:32.645Z,0.40
2023-03-27T04:13:04.007Z,0.40
2023-03-27T04:15:37.572Z,0.30
2023-03-27T04:18:24.657Z,0.30
2023-03-27T04:20:54.386Z,0.30
2023-03-27T04:23:30.287Z,0.30
2023-03-27T04:26:00.212Z,0.30
2023-03-27T04:28:37.305Z,0.30
2023-03-27T04:31:26.524Z,0.30
2023-03-27T04:34:27.084Z,0.40
2023-03-27T04:37:08.603Z,0.40
2023-03-27T04:39:42.958Z,0.40
2023-03-27T04:42:11.444Z,0.40
2023-03-27T04:44:39.829Z,0.40
2023-03-27T04:47:09.404Z,0.40
2023-03-27T04:49:40.652Z,0.40
2023-03-27T04:52:18.695Z,0.50
2023-03-27T04:54:47.325Z,0.50
2023-03-27T04:57:19.055Z,0.50
2023-03-27T04:59:49.319Z,0.50
2023-03-27T05:02:37.065Z,0.50
2023-03-27T05:05:14.110Z,0.50
2023-03-27T05:07:45.809Z,0.50
2023-03-27T05:10:21.878Z,0.50
2023-03-27T05:12:52.233Z,0.60
2023-03-27T05:15:20.415Z,0.60
2023-03-27T05:17:54.309Z,0.70
2023-03-27T05:20:24.855Z,0.80
2023-03-27T05:22:53.932Z,0.80
2023-03-27T05:25:32.138Z,0.80
2023-03-27T05:28:01.532Z,0.80
2023-03-27T05:30:32.931Z,0.90
2023-03-27T05:33:37.929Z,0.90
2023-03-27T05:36:10.403Z,1.00
2023-03-27T05:38:39.679Z,1.00
2023-03-27T05:41:16.144Z,1.00
2023-03-27T05:43:49.542Z,1.10
2023-03-27T05:46:20.999Z,1.10
2023-03-27T05:49:06.599Z,1.10
2023-03-27T05:51:34.747Z,1.20
2023-03-27T05:54:02.952Z,1.10
2023-03-27T05:56:38.396Z,1.20
2023-03-27T05:59:07.025Z,1.20
2023-03-27T06:01:36.935Z,1.30
2023-03-27T06:04:09.347Z,1.40
2023-03-27T06:07:02.512Z,1.50
2023-03-27T06:09:32.618Z,1.60
2023-03-27T06:12:19.098Z,1.60
2023-03-27T06:14:49.713Z,1.80
2023-03-27T06:17:29.390Z,2.00
2023-03-27T06:20:12.663Z,2.00
2023-03-27T06:22:43.605Z,2.00
2023-03-27T06:25:11.905Z,2.10
2023-03-27T06:27:39.995Z,2.00
2023-03-27T06:30:09.544Z,2.10
2023-03-27T06:32:38.401Z,2.00
2023-03-27T06:35:14.663Z,2.00
2023-03-27T06:37:53.468Z,2.10
2023-03-27T06:40:24.942Z,2.20
2023-03-27T06:42:56.015Z,2.30
2023-03-27T06:45:29.926Z,2.60
2023-03-27T06:48:21.446Z,2.90
2023-03-27T06:50:54.135Z,3.10
2023-03-27T06:55:54.482Z,3.40
2023-03-27T06:58:23.542Z,3.50
2023-03-27T07:00:51.771Z,3.60
2023-03-27T07:03:20.251Z,3.80
2023-03-27T07:06:05.265Z,4.10
2023-03-27T07:08:49.271Z,4.10
2023-03-27T07:11:18.320Z,4.10
2023-03-27T07:13:55.501Z,4.10
2023-03-27T07:16:28.320Z,4.30
2023-03-27T07:18:59.434Z,4.50
2023-03-27T07:21:31.167Z,4.70
2023-03-27T07:24:00.856Z,4.70
2023-03-27T07:26:34.316Z,5.10
2023-03-27T07:29:06.109Z,4.40
2023-03-27T07:31:55.032Z,3.90
2023-03-27T07:34:28.589Z,3.70
2023-03-27T07:37:22.742Z,3.80
2023-03-27T07:40:12.567Z,3.60
2023-03-27T07:42:45.388Z,3.70
2023-03-27T07:45:19.730Z,4.20
2023-03-27T07:47:49.793Z,4.80
2023-03-27T07:50:20.296Z,5.20
2023-03-27T07:52:51.188Z,5.60
2023-03-27T07:55:22.440Z,5.30
2023-03-27T07:58:07.307Z,4.90
2023-03-27T08:00:38.866Z,4.60
2023-03-27T08:03:15.182Z,4.40
2023-03-27T08:05:45.939Z,4.20
2023-03-27T08:08:18.156Z,4.10
2023-03-27T08:10:51.774Z,4.00
2023-03-27T08:13:19.850Z,3.90
2023-03-27T08:15:48.037Z,4.20
2023-03-27T08:18:25.556Z,4.20
2023-03-27T08:20:57.245Z,4.20
2023-03-27T08:23:28.096Z,5.20
2023-03-27T08:26:25.150Z,5.00
2023-03-27T08:29:02.368Z,5.00
2023-03-27T08:31:31.951Z,4.60
2023-03-27T08:34:01.969Z,5.00
2023-03-27T08:36:44.946Z,5.30
2023-03-27T08:39:15.668Z,5.70
2023-03-27T08:42:08.655Z,5.60
2023-03-27T08:44:39.559Z,6.00
2023-03-27T08:47:14.219Z,5.90
2023-03-27T08:49:55.318Z,5.70
2023-03-27T08:52:33.408Z,5.90
2023-03-27T08:55:08.959Z,6.20
2023-03-27T08:57:43.893Z,5.60
2023-03-27T09:00:23.125Z,5.00
2023-03-27T09:02:59.979Z,5.00
2023-03-27T09:05:34.476Z,5.80
2023-03-27T09:08:05.261Z,6.00
2023-03-27T09:10:36.899Z,6.40
2023-03-27T09:13:17.709Z,6.60
2023-03-27T09:15:49.775Z,6.40
2023-03-27T09:18:19.541Z,6.50
2023-03-27T09:20:49.973Z,6.10
2023-03-27T09:23:24.339Z,6.40
2023-03-27T09:26:21.528Z,6.10
2023-03-27T09:29:13.433Z,6.10
2023-03-27T09:31:52.074Z,6.60
2023-03-27T09:34:23.014Z,7.20
2023-03-27T09:36:51.122Z,7.50
2023-03-27T09:39:22.528Z,7.40
2023-03-27T09:42:00.351Z,6.80
2023-03-27T09:44:36.478Z,6.90
2023-03-27T09:47:07.714Z,7.50
2023-03-27T09:49:35.844Z,6.80
2023-03-27T09:52:09.648Z,6.90
2023-03-27T09:54:53.320Z,6.80
2023-03-27T09:57:28.767Z,7.20
2023-03-27T09:59:58.632Z,7.30
2023-03-27T10:02:28.386Z,7.60
2023-03-27T10:05:02.450Z,7.70
2023-03-27T10:07:35.444Z,7.20
2023-03-27T10:10:17.519Z,6.90
2023-03-27T10:13:06.992Z,7.40
2023-03-27T10:15:41.245Z,7.10
2023-03-27T10:18:23.550Z,6.90
2023-03-27T10:20:54.294Z,7.20
2023-03-27T10:23:25.221Z,7.00
2023-03-27T10:25:53.800Z,6.90
2023-03-27T10:28:28.157Z,7.70
2023-03-27T10:31:29.634Z,7.70
2023-03-27T10:34:03.430Z,7.60
2023-03-27T10:36:55.169Z,8.10
2023-03-27T10:39:27.871Z,8.50
2023-03-27T10:42:08.632Z,8.60
2023-03-27T10:44:40.314Z,8.40
2023-03-27T10:47:17.044Z,8.60
2023-03-27T10:49:46.291Z,8.90
2023-03-27T10:52:28.031Z,8.20
2023-03-27T10:55:17.149Z,7.50
2023-03-27T10:57:45.994Z,8.40
2023-03-27T11:00:18.666Z,7.70
2023-03-27T11:02:58.444Z,6.90
2023-03-27T11:05:30.271Z,6.60
2023-03-27T11:08:01.507Z,6.50
2023-03-27T11:10:31.768Z,6.80
2023-03-27T11:13:00.775Z,6.40
2023-03-27T11:15:31.634Z,6.60
2023-03-27T11:18:02.213Z,7.20
2023-03-27T11:20:44.352Z,7.80
2023-03-27T11:23:24.699Z,8.50
2023-03-27T11:26:19.072Z,8.70
2023-03-27T11:28:53.152Z,8.40
2023-03-27T11:31:32.271Z,8.60
2023-03-27T11:34:05.959Z,8.80
2023-03-27T11:36:40.788Z,8.20
2023-03-27T11:39:27.192Z,7.20
2023-03-27T11:41:57.494Z,6.80
2023-03-27T11:44:26.508Z,7.00
2023-03-27T11:47:18.839Z,7.10
2023-03-27T11:50:02.065Z,6.90
2023-03-27T11:52:36.977Z,6.60
2023-03-27T11:55:11.889Z,6.00
2023-03-27T11:57:48.803Z,5.60
2023-03-27T12:00:32.831Z,5.60
2023-03-27T12:03:37.107Z,5.60
2023-03-27T12:06:10.313Z,5.50
2023-03-27T12:09:04.164Z,5.70
2023-03-27T12:11:43.012Z,5.80
2023-03-27T12:14:34.398Z,5.80
2023-03-27T12:17:14.209Z,5.70
2023-03-27T12:20:18.252Z,5.80
2023-03-27T12:22:56.578Z,5.80
2023-03-27T12:25:53.227Z,5.70
2023-03-27T12:28:47.646Z,5.30
2023-03-27T12:31:37.125Z,5.00
2023-03-27T12:34:05.560Z,4.60
2023-03-27T12:36:35.919Z,4.60
2023-03-27T12:39:09.357Z,5.00
2023-03-27T12:41:39.133Z,5.50
2023-03-27T12:44:16.731Z,5.90
2023-03-27T12:47:09.129Z,6.30
2023-03-27T12:49:47.594Z,6.00
2023-03-27T12:52:25.531Z,6.30
2023-03-27T12:55:25.596Z,6.60
2023-03-27T12:58:00.343Z,6.60
2023-03-27T13:00:53.698Z,6.60
2023-03-27T13:03:42.237Z,7.00
2023-03-27T13:06:17.499Z,6.90
2023-03-27T13:09:08.305Z,6.90
2023-03-27T13:11:49.542Z,6.90
2023-03-27T13:14:54.232Z,6.80
2023-03-27T13:17:47.968Z,6.90
2023-03-27T13:20:22.613Z,7.10
2023-03-27T13:22:58.007Z,6.90
2023-03-27T13:25:40.689Z,7.00
2023-03-27T13:28:35.790Z,6.90
2023-03-27T13:31:55.814Z,7.20
2023-03-27T13:34:35.367Z,6.90
2023-03-27T13:37:41.956Z,6.50
2023-03-27T13:40:24.707Z,6.60
2023-03-27T13:43:21.652Z,6.50
2023-03-27T13:45:55.893Z,6.60
2023-03-27T13:49:05.716Z,6.60
2023-03-27T13:52:13.295Z,6.50
2023-03-27T13:55:17.782Z,6.60
2023-03-27T13:58:21.058Z,6.50
2023-03-27T14:00:55.631Z,6.50
2023-03-27T14:03:57.692Z,6.60
2023-03-27T14:07:13.946Z,6.60
2023-03-27T14:10:11.437Z,6.80
2023-03-27T14:13:04.082Z,6.70
2023-03-27T14:15:56.459Z,6.80
2023-03-27T14:19:04.623Z,6.90
2023-03-27T14:21:38.906Z,6.80
2023-03-27T14:24:19.179Z,6.60
2023-03-27T14:26:51.933Z,6.40
2023-03-27T14:29:21.314Z,6.40
2023-03-27T14:31:53.564Z,6.30
2023-03-27T14:34:47.169Z,6.30
2023-03-27T14:37:42.053Z,6.40
2023-03-27T14:40:32.262Z,6.60
2023-03-27T14:43:04.103Z,6.90
2023-03-27T14:45:33.464Z,7.00
2023-03-27T14:48:07.908Z,7.20
2023-03-27T14:50:46.453Z,7.20
2023-03-27T14:53:17.965Z,7.30
2023-03-27T14:56:01.665Z,7.30
2023-03-27T14:58:48.270Z,7.20
2023-03-27T15:01:18.971Z,6.90
2023-03-27T15:03:54.204Z,6.80
2023-03-27T15:06:26.426Z,6.70
2023-03-27T15:09:05.239Z,6.50
2023-03-27T15:11:57.787Z,6.40
2023-03-27T15:14:31.386Z,6.40
2023-03-27T15:17:01.052Z,6.60
2023-03-27T15:19:31.746Z,6.50
2023-03-27T15:22:01.415Z,6.70
2023-03-27T15:24:33.646Z,6.80
2023-03-27T15:27:01.960Z,6.90
2023-03-27T15:29:33.314Z,6.70
2023-03-27T15:32:01.451Z,6.80
2023-03-27T15:34:34.435Z,6.70
2023-03-27T15:37:03.766Z,6.50
2023-03-27T15:39:31.897Z,6.40
2023-03-27T15:42:05.048Z,6.70
2023-03-27T15:44:34.010Z,7.00
2023-03-27T15:47:02.208Z,6.80
2023-03-27T15:49:33.540Z,6.80
2023-03-27T15:52:02.221Z,6.80
2023-03-27T15:54:32.523Z,6.90
2023-03-27T15:57:09.382Z,6.80
2023-03-27T15:59:52.149Z,6.70
2023-03-27T16:02:21.539Z,6.60
2023-03-27T16:04:53.581Z,6.50
2023-03-27T16:07:23.557Z,6.40
2023-03-27T16:09:53.289Z,6.30
2023-03-27T16:12:22.490Z,6.30
2023-03-27T16:14:58.154Z,6.20
2023-03-27T16:17:34.272Z,6.00
2023-03-27T16:20:08.063Z,5.80
2023-03-27T16:22:37.251Z,5.80
2023-03-27T16:25:06.944Z,5.90
2023-03-27T16:27:35.781Z,5.60
2023-03-27T16:30:04.516Z,5.40
2023-03-27T16:32:32.541Z,5.10
2023-03-27T16:35:00.645Z,5.00
2023-03-27T16:37:30.076Z,4.90
2023-03-27T16:39:58.189Z,4.80
2023-03-27T16:42:26.605Z,4.80
2023-03-27T16:44:54.861Z,4.70
2023-03-27T16:47:24.705Z,4.70
2023-03-27T16:50:08.060Z,4.70
2023-03-27T16:52:40.072Z,4.60
2023-03-27T16:55:09.118Z,4.60
2023-03-27T16:57:37.286Z,4.50
2023-03-27T17:00:06.357Z,4.40
2023-03-27T17:02:36.448Z,4.50
2023-03-27T17:05:05.079Z,4.50
2023-03-27T17:07:33.174Z,4.50
2023-03-27T17:10:03.473Z,4.40
2023-03-27T17:12:32.328Z,4.40
2023-03-27T17:15:00.561Z,4.40
2023-03-27T17:17:31.880Z,4.30
2023-03-27T17:20:00.768Z,4.20
2023-03-27T17:22:29.909Z,3.80
2023-03-27T17:25:01.220Z,3.60
2023-03-27T17:27:30.750Z,3.50
2023-03-27T17:29:58.974Z,3.40
2023-03-27T17:32:27.196Z,3.30
2023-03-27T17:34:55.394Z,3.20
2023-03-27T17:37:23.486Z,3.20
2023-03-27T17:39:51.581Z,3.20
2023-03-27T17:42:19.663Z,3.20
2023-03-27T17:44:49.062Z,3.30
2023-03-27T17:47:17.130Z,3.30
2023-03-27T17:49:45.331Z,3.30
2023-03-27T17:52:14.228Z,3.50
2023-03-27T17:54:42.296Z,3.60
2023-03-27T17:57:10.424Z,3.80
2023-03-27T17:59:38.546Z,4.00
2023-03-27T18:02:08.187Z,4.00
2023-03-27T18:04:36.563Z,4.10
2023-03-27T18:07:04.580Z,4.10
2023-03-27T18:09:35.040Z,4.10
2023-03-27T18:12:03.077Z,4.00
2023-03-27T18:14:31.112Z,3.80
2023-03-27T18:16:59.148Z,3.50
2023-03-27T18:19:28.590Z,3.20
2023-03-27T18:21:56.628Z,2.70
2023-03-27T18:24:24.673Z,2.40
2023-03-27T18:26:52.696Z,2.30
2023-03-27T18:29:22.339Z,2.10
2023-03-27T18:31:50.398Z,2.10
2023-03-27T18:34:18.564Z,2.00
2023-03-27T18:36:51.672Z,1.90
2023-03-27T18:39:19.767Z,1.80
2023-03-27T18:41:47.794Z,1.90
2023-03-27T18:44:16.172Z,2.00
2023-03-27T18:46:44.193Z,2.00
2023-03-27T18:49:23.596Z,2.20
2023-03-27T18:51:54.539Z,2.20
2023-03-27T18:54:22.788Z,2.40
2023-03-27T18:56:52.044Z,2.50
2023-03-27T18:59:20.850Z,2.50
2023-03-27T19:01:48.943Z,2.50
2023-03-27T19:04:17.352Z,2.40
2023-03-27T19:06:46.350Z,2.40
2023-03-27T19:09:16.044Z,2.50
2023-03-27T19:11:44.835Z,2.50
2023-03-27T19:14:31.700Z,2.60
2023-03-27T19:17:34.809Z,2.60
2023-03-27T19:20:16.952Z,2.50
2023-03-27T19:23:05.479Z,2.60
2023-03-27T19:25:39.002Z,2.60
2023-03-27T19:28:07.283Z,2.40
2023-03-27T19:30:35.424Z,2.50
2023-03-27T19:33:03.510Z,2.60
2023-03-27T19:35:31.715Z,2.60
2023-03-27T19:37:59.760Z,2.60
2023-03-27T19:40:27.851Z,2.60
2023-03-27T19:42:57.239Z,2.50
2023-03-27T19:45:26.401Z,2.40
2023-03-27T19:47:54.464Z,2.40
2023-03-27T19:50:22.863Z,2.40
2023-03-27T19:53:13.395Z,2.50
2023-03-27T19:55:42.262Z,2.50
2023-03-27T19:58:11.724Z,2.50
2023-03-27T20:00:39.802Z,2.50
2023-03-27T20:03:10.170Z,2.50
2023-03-27T20:05:39.580Z,2.50
2023-03-27T20:08:07.648Z,2.50
2023-03-27T20:10:35.713Z,2.60
2023-03-27T20:13:03.797Z,2.50
2023-03-27T20:15:35.412Z,2.50
2023-03-27T20:18:04.783Z,2.60
2023-03-27T20:20:33.280Z,2.60
2023-03-27T20:23:03.016Z,2.50
2023-03-27T20:25:33.723Z,2.60
2023-03-27T20:28:01.899Z,2.60
2023-03-27T20:30:30.740Z,2.50
2023-03-27T20:33:03.125Z,2.50
2023-03-27T20:35:31.871Z,2.50
2023-03-27T20:38:04.556Z,2.50
2023-03-27T20:40:52.910Z,2.50
2023-03-27T20:43:27.084Z,2.50
2023-03-27T20:45:59.084Z,2.40
2023-03-27T20:48:32.520Z,2.40
2023-03-27T20:51:03.052Z,2.40
2023-03-27T20:53:33.647Z,2.30
2023-03-27T20:56:03.539Z,2.30
2023-03-27T20:58:33.437Z,2.30
2023-03-27T21:01:05.011Z,2.30
2023-03-27T21:03:34.974Z,2.20
2023-03-27T21:06:05.654Z,2.30
2023-03-27T21:08:34.539Z,2.30
2023-03-27T21:11:03.112Z,2.20
2023-03-27T21:13:31.146Z,2.20
2023-03-27T21:15:59.335Z,2.20
2023-03-27T21:18:27.521Z,2.20
2023-03-27T21:20:56.927Z,2.30
2023-03-27T21:23:24.941Z,2.20
2023-03-27T21:25:53.351Z,2.20
2023-03-27T21:28:21.374Z,2.20
2023-03-27T21:30:49.404Z,2.20
2023-03-27T21:33:17.591Z,2.10
2023-03-27T21:35:46.995Z,2.10
2023-03-27T21:38:16.800Z,2.10
2023-03-27T21:40:46.144Z,2.10
2023-03-27T21:43:14.196Z,2.10
2023-03-27T21:45:42.217Z,2.00
2023-03-27T21:48:11.085Z,2.00
2023-03-27T21:50:39.233Z,2.00
2023-03-27T21:53:07.274Z,2.00
2023-03-27T21:55:37.492Z,2.00
2023-03-27T21:58:05.732Z,1.90
2023-03-27T22:00:34.026Z,1.90
2023-03-27T22:03:02.132Z,1.90
2023-03-27T22:05:30.338Z,1.90
2023-03-27T22:07:58.693Z,1.90
2023-03-27T22:10:26.743Z,1.80
2023-03-27T22:12:56.126Z,1.80
2023-03-27T22:15:24.172Z,1.80
2023-03-27T22:17:52.776Z,1.80
2023-03-27T22:20:21.396Z,1.80
2023-03-27T22:22:49.503Z,1.80
2023-03-27T22:25:17.679Z,1.80
2023-03-27T22:27:46.469Z,1.10
2023-03-27T22:30:16.066Z,0.70
2023-03-27T22:32:44.163Z,0.50
2023-03-27T22:35:13.287Z,0.40
2023-03-27T22:37:41.309Z,0.20
2023-03-27T22:40:10.152Z,0.20
2023-03-27T22:42:38.166Z,0.20
2023-03-27T22:45:06.800Z,0.20
2023-03-27T22:47:36.180Z,0.20
2023-03-27T22:50:06.462Z,0.20
2023-03-27T22:52:34.521Z,0.10
2023-03-27T22:55:02.607Z,0.10
2023-03-27T22:57:30.897Z,0.20
2023-03-27T22:59:58.903Z,0.10
2023-03-27T23:02:27.054Z,0.10
2023-03-27T23:04:56.544Z,0.10
2023-03-27T23:07:24.639Z,0.10
2023-03-27T23:09:52.667Z,0.10
2023-03-27T23:12:20.872Z,0.10
2023-03-27T23:14:48.908Z,0.20
2023-03-27T23:17:17.095Z,0.10
2023-03-27T23:19:45.177Z,0.10
2023-03-27T23:22:14.612Z,0.10
2023-03-27T23:24:42.664Z,0.10
2023-03-27T23:27:10.736Z,0.10
2023-03-27T23:29:38.781Z,0.10
2023-03-27T23:32:07.362Z,-0.10
2023-03-27T23:34:35.489Z,0.00
2023-03-27T23:37:03.560Z,0.00
2023-03-27T23:39:32.967Z,0.10
2023-03-27T23:42:01.051Z,0.10
2023-03-27T23:44:29.142Z,0.00
2023-03-27T23:46:57.225Z,0.00
2023-03-27T23:49:25.280Z,0.10
2023-03-27T23:51:53.371Z,0.00
2023-03-27T23:54:21.483Z,0.00
2023-03-27T23:56:50.930Z,0.10
2023-03-27T23:59:19.015Z,0.00
